createdAt,value
2023-01-12T00:01:14.395Z,10.12
2023-01-12T00:03:17.760Z,10.11
2023-01-12T00:05:21.235Z,10.09
2023-01-12T00:07:24.958Z,10.08
2023-01-12T00:09:28.479Z,10.10
2023-01-12T00:11:32.194Z,10.14
2023-01-12T00:13:35.898Z,10.13
2023-01-12T00:15:59.511Z,10.14
2023-01-12T00:18:04.331Z,10.19
2023-01-12T00:20:08.177Z,10.23
2023-01-12T00:22:16.676Z,10.25
2023-01-12T00:24:20.202Z,10.25
2023-01-12T00:26:23.553Z,10.25
2023-01-12T00:28:26.744Z,10.27
2023-01-12T00:30:30.059Z,10.31
2023-01-12T00:32:33.223Z,10.32
2023-01-12T00:34:37.931Z,10.33
2023-01-12T00:36:41.388Z,10.32
2023-01-12T00:38:44.836Z,10.30
2023-01-12T00:40:48.104Z,10.25
2023-01-12T00:43:08.709Z,10.22
2023-01-12T00:45:23.294Z,10.20
2023-01-12T00:47:26.571Z,10.18
2023-01-12T00:49:30.357Z,10.17
2023-01-12T00:51:35.072Z,10.18
2023-01-12T00:53:38.543Z,10.16
2023-01-12T00:55:42.040Z,10.12
2023-01-12T00:57:45.273Z,10.12
2023-01-12T00:59:48.611Z,10.10
2023-01-12T01:01:52.262Z,10.06
2023-01-12T01:03:55.788Z,10.02
2023-01-12T01:06:02.812Z,9.96
2023-01-12T01:08:07.908Z,9.90
2023-01-12T01:10:11.800Z,9.89
2023-01-12T01:12:15.098Z,9.87
2023-01-12T01:14:18.553Z,9.87
2023-01-12T01:16:21.721Z,9.88
2023-01-12T01:18:25.128Z,9.91
2023-01-12T01:20:28.475Z,9.90
2023-01-12T01:22:31.774Z,9.92
2023-01-12T01:24:36.623Z,9.95
2023-01-12T01:26:39.991Z,9.98
2023-01-12T01:28:43.263Z,9.97
2023-01-12T01:30:46.777Z,9.99
2023-01-12T01:32:49.948Z,9.99
2023-01-12T01:34:53.113Z,9.97
2023-01-12T01:36:56.812Z,9.94
2023-01-12T01:39:00.076Z,9.92
2023-01-12T01:41:05.106Z,9.91
2023-01-12T01:43:11.071Z,9.90
2023-01-12T01:45:16.905Z,9.89
2023-01-12T01:47:25.927Z,9.88
2023-01-12T01:49:31.768Z,9.87
2023-01-12T01:51:34.971Z,9.86
2023-01-12T01:53:39.768Z,9.87
2023-01-12T01:55:48.404Z,9.85
2023-01-12T01:57:56.170Z,9.85
2023-01-12T02:00:00.009Z,9.86
2023-01-12T02:02:03.647Z,9.86
2023-01-12T02:04:07.401Z,9.86
2023-01-12T02:06:10.520Z,9.85
2023-01-12T02:08:18.506Z,9.86
2023-01-12T02:10:22.313Z,9.87
2023-01-12T02:12:42.716Z,9.87
2023-01-12T02:15:06.033Z,9.87
2023-01-12T02:17:20.728Z,9.83
2023-01-12T02:19:36.231Z,9.82
2023-01-12T02:21:51.222Z,9.82
2023-01-12T02:24:12.165Z,9.83
2023-01-12T02:26:36.879Z,9.84
2023-01-12T02:29:03.562Z,9.81
2023-01-12T02:31:25.575Z,9.78
2023-01-12T02:33:36.866Z,9.76
2023-01-12T02:35:44.575Z,9.75
2023-01-12T02:37:50.567Z,9.75
2023-01-12T02:39:59.834Z,9.74
2023-01-12T02:42:24.296Z,9.73
2023-01-12T02:44:29.341Z,9.75
2023-01-12T02:46:34.101Z,9.76
2023-01-12T02:48:39.698Z,9.77
2023-01-12T02:50:46.907Z,9.80
2023-01-12T02:52:53.358Z,9.82
2023-01-12T02:54:57.229Z,9.82
2023-01-12T02:57:03.660Z,9.82
2023-01-12T02:59:10.620Z,9.83
2023-01-12T03:01:15.522Z,9.87
2023-01-12T03:03:20.873Z,9.87
2023-01-12T03:05:24.109Z,9.88
2023-01-12T03:07:36.221Z,9.89
2023-01-12T03:09:41.264Z,9.90
2023-01-12T03:11:44.797Z,9.89
2023-01-12T03:13:49.132Z,9.90
2023-01-12T03:15:53.977Z,9.89
2023-01-12T03:17:59.903Z,9.88
2023-01-12T03:20:07.048Z,9.88
2023-01-12T03:22:12.522Z,9.85
2023-01-12T03:24:17.115Z,9.82
2023-01-12T03:26:23.321Z,9.81
2023-01-12T03:28:28.327Z,9.80
2023-01-12T03:30:35.043Z,9.78
2023-01-12T03:32:38.280Z,9.78
2023-01-12T03:34:41.309Z,9.79
2023-01-12T03:36:47.425Z,9.79
2023-01-12T03:38:57.656Z,9.76
2023-01-12T03:41:04.168Z,9.74
2023-01-12T03:43:08.409Z,9.70
2023-01-12T03:45:16.290Z,9.68
2023-01-12T03:47:21.877Z,9.64
2023-01-12T03:49:27.982Z,9.61
2023-01-12T03:51:33.688Z,9.58
2023-01-12T03:53:39.761Z,9.53
2023-01-12T03:55:43.947Z,9.51
2023-01-12T03:57:47.549Z,9.50
2023-01-12T03:59:50.588Z,9.47
2023-01-12T04:01:53.787Z,9.46
2023-01-12T04:03:57.231Z,9.43
2023-01-12T04:06:00.224Z,9.40
2023-01-12T04:08:03.372Z,9.38
2023-01-12T04:10:08.712Z,9.37
2023-01-12T04:12:10.659Z,9.36
2023-01-12T04:14:13.684Z,9.35
2023-01-12T04:16:16.777Z,9.34
2023-01-12T04:18:19.803Z,9.32
2023-01-12T04:20:22.882Z,9.32
2023-01-12T04:22:43.279Z,9.31
2023-01-12T04:24:46.274Z,9.31
2023-01-12T04:26:50.675Z,9.30
2023-01-12T04:28:53.727Z,9.29
2023-01-12T04:30:56.740Z,9.28
2023-01-12T04:33:00.164Z,9.29
2023-01-12T04:35:03.221Z,9.27
2023-01-12T04:37:06.168Z,9.28
2023-01-12T04:39:09.176Z,9.27
2023-01-12T04:41:12.199Z,9.26
2023-01-12T04:43:16.650Z,9.26
2023-01-12T04:45:19.678Z,9.26
2023-01-12T04:47:22.684Z,9.25
2023-01-12T04:49:25.918Z,9.25
2023-01-12T04:51:28.923Z,9.23
2023-01-12T04:53:32.306Z,9.22
2023-01-12T04:55:37.249Z,9.21
2023-01-12T04:57:40.254Z,9.21
2023-01-12T04:59:44.629Z,9.21
2023-01-12T05:01:47.643Z,9.21
2023-01-12T05:03:50.670Z,9.21
2023-01-12T05:05:53.726Z,9.21
2023-01-12T05:08:14.549Z,9.20
2023-01-12T05:10:23.769Z,9.21
2023-01-12T05:12:26.743Z,9.22
2023-01-12T05:14:29.854Z,9.23
2023-01-12T05:16:34.362Z,9.22
2023-01-12T05:18:37.389Z,9.22
2023-01-12T05:20:40.300Z,9.22
2023-01-12T05:22:43.209Z,9.22
2023-01-12T05:24:46.132Z,9.23
2023-01-12T05:26:49.097Z,9.22
2023-01-12T05:28:52.555Z,9.23
2023-01-12T05:30:55.829Z,9.22
2023-01-12T05:33:00.382Z,9.20
2023-01-12T05:35:03.749Z,9.19
2023-01-12T05:37:06.676Z,9.17
2023-01-12T05:39:09.623Z,9.17
2023-01-12T05:41:14.501Z,9.16
2023-01-12T05:43:34.743Z,9.15
2023-01-12T05:45:37.878Z,9.16
2023-01-12T05:47:40.869Z,9.17
2023-01-12T05:49:45.328Z,9.17
2023-01-12T05:51:49.098Z,9.19
2023-01-12T05:53:52.062Z,9.19
2023-01-12T05:55:55.057Z,9.19
2023-01-12T05:57:58.013Z,9.21
2023-01-12T06:00:01.005Z,9.23
2023-01-12T06:02:04.061Z,9.24
2023-01-12T06:04:07.158Z,9.26
2023-01-12T06:06:11.503Z,9.28
2023-01-12T06:08:14.523Z,9.28
2023-01-12T06:10:17.773Z,9.31
2023-01-12T06:12:38.197Z,9.34
2023-01-12T06:14:41.113Z,9.37
2023-01-12T06:16:44.538Z,9.37
2023-01-12T06:18:47.465Z,9.39
2023-01-12T06:20:50.409Z,9.39
2023-01-12T06:22:55.608Z,9.39
2023-01-12T06:24:58.810Z,9.40
2023-01-12T06:27:01.759Z,9.40
2023-01-12T06:29:07.118Z,9.40
2023-01-12T06:31:11.863Z,9.39
2023-01-12T06:33:14.913Z,9.40
2023-01-12T06:35:19.459Z,9.40
2023-01-12T06:37:22.824Z,9.40
2023-01-12T06:39:27.194Z,9.41
2023-01-12T06:41:47.533Z,9.42
2023-01-12T06:43:50.425Z,9.45
2023-01-12T06:45:54.305Z,9.46
2023-01-12T06:47:57.444Z,9.48
2023-01-12T06:50:00.808Z,9.51
2023-01-12T06:52:03.789Z,9.53
2023-01-12T06:54:06.771Z,9.53
2023-01-12T06:56:11.177Z,9.51
2023-01-12T06:58:14.177Z,9.51
2023-01-12T07:00:17.299Z,9.51
2023-01-12T07:02:20.281Z,9.50
2023-01-12T07:04:23.295Z,9.50
2023-01-12T07:06:26.335Z,9.49
2023-01-12T07:08:29.713Z,9.48
2023-01-12T07:10:33.655Z,9.51
2023-01-12T07:12:38.073Z,9.55
2023-01-12T07:14:41.075Z,9.59
2023-01-12T07:16:44.038Z,9.59
2023-01-12T07:18:48.154Z,9.60
2023-01-12T07:20:51.092Z,9.62
2023-01-12T07:22:55.583Z,9.67
2023-01-12T07:24:58.559Z,9.70
2023-01-12T07:27:01.631Z,9.68
2023-01-12T07:29:06.165Z,9.69
2023-01-12T07:31:09.410Z,9.66
2023-01-12T07:33:13.572Z,9.68
2023-01-12T07:35:25.297Z,9.66
2023-01-12T07:37:28.621Z,9.65
2023-01-12T07:39:31.773Z,9.62
2023-01-12T07:41:52.703Z,9.57
2023-01-12T07:43:55.924Z,9.52
2023-01-12T07:46:00.752Z,9.46
2023-01-12T07:48:03.796Z,9.44
2023-01-12T07:50:07.400Z,9.45
2023-01-12T07:52:11.891Z,9.44
2023-01-12T07:54:14.836Z,9.46
2023-01-12T07:56:19.208Z,9.47
2023-01-12T07:58:22.144Z,9.48
2023-01-12T08:00:25.901Z,9.47
2023-01-12T08:02:30.275Z,9.48
2023-01-12T08:04:33.258Z,9.46
2023-01-12T08:06:36.578Z,9.46
2023-01-12T08:08:39.612Z,9.46
2023-01-12T08:10:43.738Z,9.46
2023-01-12T08:12:46.652Z,9.45
2023-01-12T08:14:49.633Z,9.43
2023-01-12T08:16:53.496Z,9.40
2023-01-12T08:18:59.386Z,9.36
2023-01-12T08:21:05.716Z,9.32
2023-01-12T08:23:11.759Z,9.30
2023-01-12T08:25:16.759Z,9.29
2023-01-12T08:27:22.858Z,9.26
2023-01-12T08:29:32.195Z,9.25
2023-01-12T08:31:37.279Z,9.25
2023-01-12T08:33:40.776Z,9.25
2023-01-12T08:35:46.472Z,9.25
2023-01-12T08:37:50.011Z,9.24
2023-01-12T08:39:54.258Z,9.23
2023-01-12T08:41:57.379Z,9.20
2023-01-12T08:44:03.388Z,9.15
2023-01-12T08:46:09.335Z,9.13
2023-01-12T08:48:12.461Z,9.11
2023-01-12T08:50:16.107Z,9.08
2023-01-12T08:52:21.055Z,9.05
2023-01-12T08:54:24.368Z,9.03
2023-01-12T08:56:27.747Z,9.01
2023-01-12T08:58:30.939Z,8.98
2023-01-12T09:00:34.462Z,8.95
2023-01-12T09:02:37.845Z,8.95
2023-01-12T09:04:41.408Z,8.92
2023-01-12T09:06:45.730Z,8.89
2023-01-12T09:08:54.414Z,8.89
2023-01-12T09:11:03.243Z,8.86
2023-01-12T09:13:06.578Z,8.84
2023-01-12T09:15:10.373Z,8.82
2023-01-12T09:17:13.763Z,8.80
2023-01-12T09:19:16.817Z,8.80
2023-01-12T09:21:21.712Z,8.80
2023-01-12T09:23:24.766Z,8.83
2023-01-12T09:25:29.442Z,8.84
2023-01-12T09:27:32.634Z,8.86
2023-01-12T09:29:35.996Z,8.88
2023-01-12T09:31:40.279Z,8.89
2023-01-12T09:33:44.912Z,8.91
2023-01-12T09:35:48.083Z,8.92
2023-01-12T09:37:51.363Z,8.88
2023-01-12T09:39:54.742Z,8.72
2023-01-12T09:42:17.585Z,8.49
2023-01-12T09:44:41.276Z,8.24
2023-01-12T09:46:59.732Z,7.98
2023-01-12T09:49:03.211Z,7.76
2023-01-12T09:51:10.864Z,7.58
2023-01-12T09:53:16.368Z,7.43
2023-01-12T09:55:21.314Z,7.32
2023-01-12T09:57:38.783Z,7.25
2023-01-12T09:59:46.327Z,7.21
2023-01-12T10:01:49.894Z,7.18
2023-01-12T10:03:53.257Z,7.18
2023-01-12T10:05:58.366Z,7.21
2023-01-12T10:08:01.617Z,7.24
2023-01-12T10:10:05.188Z,7.29
2023-01-12T10:12:16.305Z,7.34
2023-01-12T10:14:51.286Z,7.42
2023-01-12T10:17:02.993Z,7.49
2023-01-12T10:19:12.522Z,7.56
2023-01-12T10:21:15.935Z,7.65
2023-01-12T10:23:24.868Z,7.72
2023-01-12T10:25:32.261Z,7.77
2023-01-12T10:27:36.171Z,7.82
2023-01-12T10:29:39.633Z,7.85
2023-01-12T10:31:44.251Z,7.89
2023-01-12T10:34:02.637Z,7.93
2023-01-12T10:36:18.844Z,7.99
2023-01-12T10:38:24.816Z,8.06
2023-01-12T10:40:30.281Z,8.08
2023-01-12T10:42:50.945Z,8.11
2023-01-12T10:45:06.405Z,8.18
2023-01-12T10:47:11.982Z,8.22
2023-01-12T10:49:19.643Z,8.27
2023-01-12T10:51:25.261Z,8.31
2023-01-12T10:53:30.932Z,8.35
2023-01-12T10:55:36.075Z,8.36
2023-01-12T10:57:44.649Z,8.40
2023-01-12T10:59:52.699Z,8.39
2023-01-12T11:02:12.452Z,8.41
2023-01-12T11:04:20.412Z,8.42
2023-01-12T11:06:25.477Z,8.47
2023-01-12T11:08:29.139Z,8.51
2023-01-12T11:10:33.460Z,8.49
2023-01-12T11:12:39.418Z,8.51
2023-01-12T11:14:42.991Z,8.53
2023-01-12T11:16:49.486Z,8.53
2023-01-12T11:18:57.483Z,8.51
2023-01-12T11:21:04.485Z,8.46
2023-01-12T11:23:11.769Z,8.43
2023-01-12T11:25:18.076Z,8.46
2023-01-12T11:27:27.375Z,8.53
2023-01-12T11:29:36.359Z,8.61
2023-01-12T11:31:40.579Z,8.71
2023-01-12T11:33:45.160Z,8.74
2023-01-12T11:35:51.273Z,8.70
2023-01-12T11:37:59.175Z,8.63
2023-01-12T11:40:05.846Z,8.50
2023-01-12T11:42:30.472Z,8.27
2023-01-12T11:44:37.188Z,7.92
2023-01-12T11:46:42.708Z,7.71
2023-01-12T11:48:48.533Z,7.53
2023-01-12T11:50:53.525Z,7.41
2023-01-12T11:52:59.111Z,7.34
2023-01-12T11:55:02.508Z,7.36
2023-01-12T11:57:27.981Z,7.39
2023-01-12T11:59:33.941Z,7.44
2023-01-12T12:01:42.325Z,7.49
2023-01-12T12:03:52.494Z,7.49
2023-01-12T12:05:59.749Z,7.52
2023-01-12T12:08:10.553Z,7.56
2023-01-12T12:10:22.680Z,7.57
2023-01-12T12:12:33.156Z,7.58
2023-01-12T12:14:51.288Z,7.59
2023-01-12T12:17:00.921Z,7.58
2023-01-12T12:19:17.031Z,7.58
2023-01-12T12:21:27.375Z,7.56
2023-01-12T12:23:45.269Z,7.55
2023-01-12T12:25:54.287Z,7.53
2023-01-12T12:28:08.971Z,7.52
2023-01-12T12:30:25.015Z,7.51
2023-01-12T12:32:31.947Z,7.51
2023-01-12T12:34:43.538Z,7.50
2023-01-12T12:36:51.522Z,7.50
2023-01-12T12:39:11.725Z,7.47
2023-01-12T12:41:41.536Z,7.45
2023-01-12T12:44:02.261Z,7.39
2023-01-12T12:46:11.712Z,7.35
2023-01-12T12:48:16.906Z,7.30
2023-01-12T12:50:22.535Z,7.25
2023-01-12T12:52:26.487Z,7.20
2023-01-12T12:54:31.768Z,7.17
2023-01-12T12:56:36.628Z,7.11
2023-01-12T12:58:41.593Z,7.09
2023-01-12T13:00:46.946Z,7.10
2023-01-12T13:02:58.814Z,7.10
2023-01-12T13:05:05.233Z,7.08
2023-01-12T13:07:09.245Z,7.07
2023-01-12T13:09:30.850Z,7.03
2023-01-12T13:11:53.939Z,6.97
2023-01-12T13:14:01.194Z,6.94
2023-01-12T13:16:19.210Z,6.88
2023-01-12T13:18:45.013Z,6.85
2023-01-12T13:20:59.969Z,6.80
2023-01-12T13:23:03.304Z,6.77
2023-01-12T13:25:29.902Z,6.75
2023-01-12T13:27:49.958Z,6.73
2023-01-12T13:29:53.207Z,6.69
2023-01-12T13:31:58.574Z,6.71
2023-01-12T13:34:16.470Z,6.71
2023-01-12T13:36:31.135Z,6.70
2023-01-12T13:38:51.723Z,6.69
2023-01-12T13:41:02.966Z,6.68
2023-01-12T13:43:19.692Z,6.72
2023-01-12T13:45:23.616Z,6.75
2023-01-12T13:47:30.677Z,6.80
2023-01-12T13:49:35.047Z,6.83
2023-01-12T13:51:40.044Z,6.85
2023-01-12T13:53:43.514Z,6.90
2023-01-12T13:55:56.844Z,6.95
2023-01-12T13:58:01.254Z,6.99
2023-01-12T14:00:09.403Z,7.02
2023-01-12T14:02:19.003Z,7.05
2023-01-12T14:04:29.032Z,7.07
2023-01-12T14:06:38.218Z,7.09
2023-01-12T14:09:05.463Z,7.12
2023-01-12T14:11:16.954Z,7.15
2023-01-12T14:13:29.118Z,7.18
2023-01-12T14:15:54.980Z,7.23
2023-01-12T14:18:02.179Z,7.23
2023-01-12T14:20:14.510Z,7.24
2023-01-12T14:22:19.300Z,7.23
2023-01-12T14:24:23.504Z,7.24
2023-01-12T14:26:27.404Z,7.25
2023-01-12T14:28:31.059Z,7.27
2023-01-12T14:30:35.019Z,7.28
2023-01-12T14:32:43.658Z,7.30
2023-01-12T14:34:50.284Z,7.31
2023-01-12T14:36:53.670Z,7.34
2023-01-12T14:38:57.318Z,7.37
2023-01-12T14:41:02.523Z,7.36
2023-01-12T14:43:23.601Z,7.37
2023-01-12T14:45:45.367Z,7.37
2023-01-12T14:47:50.123Z,7.38
2023-01-12T14:49:53.334Z,7.39
2023-01-12T14:51:57.277Z,7.42
2023-01-12T14:54:02.725Z,7.43
2023-01-12T14:56:10.915Z,7.43
2023-01-12T14:58:21.059Z,7.42
2023-01-12T15:00:25.777Z,7.43
2023-01-12T15:02:33.387Z,7.38
2023-01-12T15:04:38.063Z,7.34
2023-01-12T15:06:44.208Z,7.24
2023-01-12T15:08:54.530Z,7.16
2023-01-12T15:10:58.717Z,7.08
2023-01-12T15:13:14.161Z,7.02
2023-01-12T15:15:19.016Z,6.95
2023-01-12T15:17:39.507Z,6.93
2023-01-12T15:20:01.364Z,6.89
2023-01-12T15:22:21.896Z,6.87
2023-01-12T15:24:43.306Z,6.87
2023-01-12T15:26:51.094Z,6.86
2023-01-12T15:28:59.036Z,6.86
2023-01-12T15:31:02.294Z,6.89
2023-01-12T15:33:05.867Z,6.91
2023-01-12T15:35:15.179Z,6.90
2023-01-12T15:37:19.210Z,6.92
2023-01-12T15:39:22.540Z,6.90
2023-01-12T15:41:41.233Z,6.90
2023-01-12T15:43:44.570Z,6.89
2023-01-12T15:45:48.457Z,6.88
2023-01-12T15:47:51.831Z,6.86
2023-01-12T15:49:55.046Z,6.85
2023-01-12T15:52:00.565Z,6.83
2023-01-12T15:54:04.288Z,6.83
2023-01-12T15:56:09.681Z,6.83
2023-01-12T15:58:12.907Z,6.82
2023-01-12T16:00:18.031Z,6.81
2023-01-12T16:02:27.607Z,6.80
2023-01-12T16:04:46.039Z,6.81
2023-01-12T16:06:49.707Z,6.78
2023-01-12T16:08:54.304Z,6.78
2023-01-12T16:11:13.755Z,6.77
2023-01-12T16:13:16.823Z,6.75
2023-01-12T16:15:21.105Z,6.75
2023-01-12T16:17:24.266Z,6.73
2023-01-12T16:19:28.098Z,6.72
2023-01-12T16:21:31.516Z,6.70
2023-01-12T16:23:34.759Z,6.69
2023-01-12T16:25:39.367Z,6.69
2023-01-12T16:27:43.094Z,6.67
2023-01-12T16:29:46.717Z,6.64
2023-01-12T16:31:49.980Z,6.60
2023-01-12T16:33:53.203Z,6.61
2023-01-12T16:35:56.727Z,6.61
2023-01-12T16:37:59.902Z,6.58
2023-01-12T16:40:03.124Z,6.59
2023-01-12T16:42:07.886Z,6.60
2023-01-12T16:44:11.094Z,6.62
2023-01-12T16:46:14.557Z,6.63
2023-01-12T16:48:17.875Z,6.64
2023-01-12T16:50:21.138Z,6.65
2023-01-12T16:52:24.553Z,6.64
2023-01-12T16:54:27.922Z,6.63
2023-01-12T16:56:31.132Z,6.64
2023-01-12T16:58:35.693Z,6.63
2023-01-12T17:00:38.968Z,6.63
2023-01-12T17:02:43.375Z,6.62
2023-01-12T17:04:49.151Z,6.59
2023-01-12T17:06:52.489Z,6.57
2023-01-12T17:08:56.159Z,6.53
2023-01-12T17:11:05.225Z,6.48
2023-01-12T17:13:08.689Z,6.41
2023-01-12T17:15:13.872Z,6.35
2023-01-12T17:17:17.248Z,6.26
2023-01-12T17:19:21.204Z,6.18
2023-01-12T17:21:24.753Z,6.09
2023-01-12T17:23:28.586Z,6.03
2023-01-12T17:25:31.913Z,5.96
2023-01-12T17:27:35.093Z,5.95
2023-01-12T17:29:38.745Z,5.90
2023-01-12T17:31:43.607Z,5.90
2023-01-12T17:33:47.186Z,5.89
2023-01-12T17:35:50.583Z,5.88
2023-01-12T17:37:55.482Z,5.90
2023-01-12T17:39:59.343Z,5.90
2023-01-12T17:42:20.225Z,5.92
2023-01-12T17:44:23.738Z,5.93
2023-01-12T17:46:26.948Z,5.96
2023-01-12T17:48:31.694Z,5.98
2023-01-12T17:50:34.937Z,5.98
2023-01-12T17:52:38.327Z,6.00
2023-01-12T17:54:41.664Z,5.99
2023-01-12T17:56:45.784Z,5.99
2023-01-12T17:58:51.104Z,6.00
2023-01-12T18:00:54.354Z,6.00
2023-01-12T18:02:58.028Z,6.00
2023-01-12T18:05:02.766Z,6.00
2023-01-12T18:07:06.250Z,6.03
2023-01-12T18:09:10.739Z,6.04
2023-01-12T18:11:14.375Z,6.05
2023-01-12T18:13:17.663Z,6.05
2023-01-12T18:15:21.373Z,6.04
2023-01-12T18:17:24.878Z,6.07
2023-01-12T18:19:28.094Z,6.07
2023-01-12T18:21:32.991Z,6.07
2023-01-12T18:23:36.728Z,6.08
2023-01-12T18:25:41.807Z,6.09
2023-01-12T18:27:45.796Z,6.07
2023-01-12T18:29:48.957Z,6.02
2023-01-12T18:31:52.389Z,5.99
2023-01-12T18:33:57.924Z,5.96
2023-01-12T18:36:01.381Z,5.90
2023-01-12T18:38:07.921Z,5.89
2023-01-12T18:40:12.134Z,5.86
2023-01-12T18:42:32.453Z,5.84
2023-01-12T18:44:36.330Z,5.82
2023-01-12T18:46:59.036Z,5.79
2023-01-12T18:49:02.239Z,5.80
2023-01-12T18:51:23.106Z,5.82
2023-01-12T18:53:31.133Z,5.84
2023-01-12T18:55:36.862Z,5.86
2023-01-12T18:57:40.040Z,5.86
2023-01-12T18:59:43.254Z,5.88
2023-01-12T19:01:46.455Z,5.87
2023-01-12T19:03:50.291Z,5.89
2023-01-12T19:06:00.836Z,5.88
2023-01-12T19:08:25.544Z,5.90
2023-01-12T19:10:29.563Z,5.91
2023-01-12T19:12:34.029Z,5.91
2023-01-12T19:14:54.386Z,5.92
2023-01-12T19:17:14.993Z,5.92
2023-01-12T19:19:22.932Z,5.93
2023-01-12T19:21:43.645Z,5.97
2023-01-12T19:24:03.971Z,6.00
2023-01-12T19:26:27.869Z,6.03
2023-01-12T19:28:35.875Z,6.05
2023-01-12T19:30:39.278Z,6.07
2023-01-12T19:32:42.575Z,6.08
2023-01-12T19:34:45.958Z,6.08
2023-01-12T19:36:49.365Z,6.08
2023-01-12T19:38:52.958Z,6.08
2023-01-12T19:41:10.652Z,6.09
2023-01-12T19:43:19.197Z,6.11
2023-01-12T19:45:22.707Z,6.12
2023-01-12T19:47:25.918Z,6.14
2023-01-12T19:49:29.104Z,6.15
2023-01-12T19:51:32.355Z,6.17
2023-01-12T19:53:35.715Z,6.17
2023-01-12T19:55:41.193Z,6.18
2023-01-12T19:57:44.711Z,6.22
2023-01-12T19:59:49.547Z,6.23
2023-01-12T20:01:54.195Z,6.25
2023-01-12T20:03:57.487Z,6.26
2023-01-12T20:06:00.743Z,6.29
2023-01-12T20:08:04.017Z,6.29
2023-01-12T20:10:09.099Z,6.34
2023-01-12T20:12:12.323Z,6.35
2023-01-12T20:14:16.527Z,6.36
2023-01-12T20:16:21.031Z,6.37
2023-01-12T20:18:24.699Z,6.37
2023-01-12T20:20:28.156Z,6.40
2023-01-12T20:22:31.793Z,6.41
2023-01-12T20:24:35.100Z,6.41
2023-01-12T20:26:40.424Z,6.38
2023-01-12T20:28:43.590Z,6.37
2023-01-12T20:30:46.872Z,6.34
2023-01-12T20:32:51.929Z,6.31
2023-01-12T20:34:55.086Z,6.29
2023-01-12T20:36:58.320Z,6.26
2023-01-12T20:39:01.609Z,6.27
2023-01-12T20:41:05.689Z,6.26
2023-01-12T20:43:09.047Z,6.25
2023-01-12T20:45:13.662Z,6.27
2023-01-12T20:47:19.329Z,6.28
2023-01-12T20:49:24.187Z,6.30
2023-01-12T20:51:27.508Z,6.34
2023-01-12T20:53:31.769Z,6.37
2023-01-12T20:55:35.072Z,6.41
2023-01-12T20:57:39.251Z,6.42
2023-01-12T20:59:42.809Z,6.46
2023-01-12T21:01:46.195Z,6.46
2023-01-12T21:03:49.489Z,6.46
2023-01-12T21:05:54.752Z,6.46
2023-01-12T21:08:07.404Z,6.48
2023-01-12T21:10:12.304Z,6.46
2023-01-12T21:12:15.598Z,6.46
2023-01-12T21:14:20.079Z,6.46
2023-01-12T21:16:23.561Z,6.44
2023-01-12T21:18:26.766Z,6.43
2023-01-12T21:20:30.077Z,6.43
2023-01-12T21:22:34.718Z,6.40
2023-01-12T21:24:37.942Z,6.40
2023-01-12T21:26:41.407Z,6.43
2023-01-12T21:28:44.614Z,6.44
2023-01-12T21:30:48.036Z,6.47
2023-01-12T21:32:53.009Z,6.48
2023-01-12T21:34:56.433Z,6.49
2023-01-12T21:36:59.733Z,6.51
2023-01-12T21:39:05.521Z,6.52
2023-01-12T21:41:08.961Z,6.53
2023-01-12T21:43:12.531Z,6.55
2023-01-12T21:45:15.874Z,6.54
2023-01-12T21:47:19.186Z,6.54
2023-01-12T21:49:22.488Z,6.55
2023-01-12T21:51:25.768Z,6.54
2023-01-12T21:53:29.071Z,6.55
2023-01-12T21:55:34.623Z,6.57
2023-01-12T21:57:37.895Z,6.57
2023-01-12T21:59:41.128Z,6.59
2023-01-12T22:01:45.717Z,6.60
2023-01-12T22:03:49.110Z,6.63
2023-01-12T22:05:52.424Z,6.65
2023-01-12T22:07:57.942Z,6.65
2023-01-12T22:10:19.290Z,6.64
2023-01-12T22:12:24.037Z,6.63
2023-01-12T22:14:27.309Z,6.64
2023-01-12T22:16:30.688Z,6.64
2023-01-12T22:18:34.846Z,6.65
2023-01-12T22:20:38.833Z,6.65
2023-01-12T22:22:42.055Z,6.64
2023-01-12T22:24:45.122Z,6.65
2023-01-12T22:26:48.435Z,6.64
2023-01-12T22:28:53.245Z,6.64
2023-01-12T22:30:56.437Z,6.64
2023-01-12T22:32:59.614Z,6.65
2023-01-12T22:35:02.876Z,6.66
2023-01-12T22:37:06.213Z,6.67
2023-01-12T22:39:09.518Z,6.70
2023-01-12T22:41:13.748Z,6.71
2023-01-12T22:43:28.119Z,6.75
2023-01-12T22:45:34.774Z,6.75
2023-01-12T22:47:47.605Z,6.74
2023-01-12T22:49:51.766Z,6.72
2023-01-12T22:51:55.686Z,6.69
2023-01-12T22:53:59.376Z,6.66
2023-01-12T22:56:03.291Z,6.65
2023-01-12T22:58:07.160Z,6.66
2023-01-12T23:00:12.990Z,6.68
2023-01-12T23:02:31.551Z,6.69
2023-01-12T23:04:35.544Z,6.71
2023-01-12T23:06:40.036Z,6.73
2023-01-12T23:08:43.953Z,6.76
2023-01-12T23:10:47.114Z,6.80
2023-01-12T23:13:04.124Z,6.80
2023-01-12T23:15:07.916Z,6.82
2023-01-12T23:17:12.851Z,6.82
2023-01-12T23:19:17.630Z,6.81
2023-01-12T23:21:22.328Z,6.78
2023-01-12T23:23:25.635Z,6.77
2023-01-12T23:25:28.876Z,6.76
2023-01-12T23:27:33.817Z,6.76
2023-01-12T23:29:36.979Z,6.77
2023-01-12T23:31:40.290Z,6.80
2023-01-12T23:33:44.137Z,6.80
2023-01-12T23:35:49.310Z,6.82
2023-01-12T23:37:53.224Z,6.82
2023-01-12T23:39:56.678Z,6.81
2023-01-12T23:41:59.977Z,6.80
2023-01-12T23:44:04.245Z,6.77
2023-01-12T23:46:08.440Z,6.75
2023-01-12T23:48:11.760Z,6.67
2023-01-12T23:50:15.133Z,6.60
2023-01-12T23:52:19.756Z,6.54
2023-01-12T23:54:23.407Z,6.49
2023-01-12T23:56:27.417Z,6.42
2023-01-12T23:58:30.896Z,6.39
